createdAt,value
2019-02-12T00:02:18.017Z,10.75
2019-02-12T00:04:57.308Z,12.28
2019-02-12T00:07:37.434Z,11.65
2019-02-12T00:10:16.795Z,11.97
2019-02-12T00:12:56.279Z,12.60
2019-02-12T00:15:36.581Z,12.00
2019-02-12T00:18:16.803Z,11.50
2019-02-12T00:20:55.937Z,12.40
2019-02-12T00:23:35.223Z,11.40
2019-02-12T00:26:14.361Z,11.38
2019-02-12T00:28:53.461Z,11.30
2019-02-12T00:31:32.588Z,10.90
2019-02-12T00:34:16.054Z,11.80
2019-02-12T00:36:55.044Z,10.58
2019-02-12T00:39:34.486Z,9.83
2019-02-12T00:42:13.536Z,9.90
2019-02-12T00:44:52.675Z,9.08
2019-02-12T00:47:31.687Z,8.63
2019-02-12T00:50:11.699Z,9.35
2019-02-12T00:52:51.812Z,9.38
2019-02-12T00:55:36.133Z,9.95
2019-02-12T00:58:14.954Z,9.40
2019-02-12T01:00:54.229Z,9.78
2019-02-12T01:03:34.357Z,9.78
2019-02-12T01:06:13.620Z,9.33
2019-02-12T01:08:52.719Z,9.83
2019-02-12T01:11:32.020Z,9.50
2019-02-12T01:14:11.612Z,9.85
2019-02-12T01:16:50.913Z,10.05
2019-02-12T01:19:29.993Z,9.85
2019-02-12T01:22:12.105Z,7.47
2019-02-12T01:24:51.436Z,8.40
2019-02-12T01:27:30.724Z,8.08
2019-02-12T01:30:11.921Z,7.35
2019-02-12T01:32:53.745Z,6.83
2019-02-12T01:35:32.992Z,8.03
2019-02-12T01:38:12.264Z,8.28
2019-02-12T01:40:51.592Z,7.20
2019-02-12T01:43:30.700Z,8.00
2019-02-12T01:46:16.521Z,8.23
2019-02-12T01:48:58.787Z,8.25
2019-02-12T01:51:37.971Z,8.45
2019-02-12T01:54:18.910Z,9.05
2019-02-12T01:56:58.269Z,11.12
2019-02-12T01:59:37.874Z,10.90
2019-02-12T02:02:17.169Z,34.92
2019-02-12T02:04:56.551Z,24.72
2019-02-12T02:07:35.978Z,19.82
2019-02-12T02:10:17.016Z,28.30
2019-02-12T02:12:56.172Z,13.43
2019-02-12T02:15:35.294Z,12.78
2019-02-12T02:18:14.462Z,12.30
2019-02-12T02:20:55.189Z,10.90
2019-02-12T02:23:34.315Z,11.22
2019-02-12T02:26:13.588Z,8.88
2019-02-12T02:28:52.715Z,8.48
2019-02-12T02:31:31.884Z,8.63
2019-02-12T02:34:11.113Z,9.15
2019-02-12T02:36:51.081Z,9.23
2019-02-12T02:39:29.684Z,9.70
2019-02-12T02:42:11.281Z,10.30
2019-02-12T02:44:50.204Z,10.20
2019-02-12T02:47:29.624Z,10.75
2019-02-12T02:50:08.975Z,9.40
2019-02-12T02:52:49.149Z,9.70
2019-02-12T02:55:28.484Z,9.90
2019-02-12T02:58:09.309Z,9.40
2019-02-12T03:00:48.763Z,10.55
2019-02-12T03:03:28.761Z,10.88
2019-02-12T03:06:08.550Z,11.45
2019-02-12T03:08:49.054Z,11.68
2019-02-12T03:11:28.411Z,13.20
2019-02-12T03:14:08.340Z,14.18
2019-02-12T03:16:48.469Z,15.65
2019-02-12T03:19:27.640Z,13.32
2019-02-12T03:22:06.825Z,15.50
2019-02-12T03:24:45.975Z,17.52
2019-02-12T03:27:25.269Z,19.20
2019-02-12T03:30:05.670Z,18.27
2019-02-12T03:32:45.126Z,19.02
2019-02-12T03:35:24.246Z,18.50
2019-02-12T03:38:03.801Z,18.82
2019-02-12T03:40:42.965Z,18.70
2019-02-12T03:43:21.947Z,19.92
2019-02-12T03:46:01.503Z,19.50
2019-02-12T03:48:40.873Z,18.90
2019-02-12T03:51:20.012Z,20.62
2019-02-12T03:53:59.113Z,21.17
2019-02-12T03:56:39.621Z,19.55
2019-02-12T03:59:22.674Z,19.60
2019-02-12T04:02:02.088Z,19.52
2019-02-12T04:04:44.120Z,19.85
2019-02-12T04:09:59.236Z,21.55
2019-02-12T04:12:39.197Z,23.25
2019-02-12T04:15:18.474Z,22.80
2019-02-12T04:17:58.241Z,24.57
2019-02-12T04:20:37.652Z,23.18
2019-02-12T04:23:16.610Z,23.00
2019-02-12T04:25:55.552Z,22.50
2019-02-12T04:28:38.626Z,22.32
2019-02-12T04:31:17.906Z,23.07
2019-02-12T04:33:56.899Z,22.85
2019-02-12T04:36:36.090Z,23.22
2019-02-12T04:39:15.459Z,22.00
2019-02-12T04:41:54.415Z,24.50
2019-02-12T04:44:33.528Z,24.60
2019-02-12T04:47:12.488Z,25.02
2019-02-12T04:49:51.530Z,25.15
2019-02-12T04:52:32.019Z,25.95
2019-02-12T04:55:12.029Z,28.45
2019-02-12T04:57:54.014Z,26.97
2019-02-12T05:00:34.557Z,28.67
2019-02-12T05:03:13.540Z,28.38
2019-02-12T05:05:52.678Z,28.17
2019-02-12T05:08:31.656Z,27.30
2019-02-12T05:11:10.862Z,28.10
2019-02-12T05:13:50.151Z,27.87
2019-02-12T05:16:30.661Z,27.60
2019-02-12T05:21:51.654Z,35.88
2019-02-12T05:24:30.773Z,30.92
2019-02-12T05:27:10.129Z,28.62
2019-02-12T05:29:52.251Z,28.47
2019-02-12T05:32:35.478Z,28.60
2019-02-12T05:35:12.665Z,28.17
2019-02-12T05:37:52.920Z,27.93
2019-02-12T05:40:31.804Z,28.25
2019-02-12T05:43:12.159Z,28.83
2019-02-12T05:45:51.159Z,27.77
2019-02-12T05:48:30.457Z,28.83
2019-02-12T05:51:10.261Z,27.65
2019-02-12T05:53:49.326Z,27.85
2019-02-12T05:56:29.930Z,29.55
2019-02-12T05:59:09.009Z,29.55
2019-02-12T06:01:49.374Z,29.42
2019-02-12T06:04:28.803Z,28.75
2019-02-12T06:07:08.889Z,29.57
2019-02-12T06:09:48.204Z,29.12
2019-02-12T06:12:38.214Z,28.52
2019-02-12T06:15:17.456Z,27.95
2019-02-12T06:17:56.980Z,28.67
2019-02-12T06:20:37.270Z,28.95
2019-02-12T06:23:17.453Z,28.62
2019-02-12T06:25:58.852Z,29.93
2019-02-12T06:28:39.114Z,27.13
2019-02-12T06:31:18.286Z,29.07
2019-02-12T06:33:57.403Z,30.23
2019-02-12T06:36:37.277Z,28.98
2019-02-12T06:39:16.227Z,28.38
2019-02-12T06:41:57.360Z,29.50
2019-02-12T06:44:36.843Z,27.87
2019-02-12T06:47:16.402Z,28.12
2019-02-12T06:49:57.425Z,27.35
2019-02-12T06:52:36.740Z,29.23
2019-02-12T06:55:16.009Z,28.27
2019-02-12T06:57:54.863Z,28.47
2019-02-12T07:00:34.005Z,28.87
2019-02-12T07:03:20.150Z,29.55
2019-02-12T07:06:09.539Z,28.40
2019-02-12T07:08:59.160Z,28.38
2019-02-12T07:12:12.586Z,27.27
2019-02-12T07:15:19.089Z,28.05
2019-02-12T07:18:17.829Z,27.65
2019-02-12T07:21:37.852Z,27.90
2019-02-12T07:24:45.012Z,28.35
2019-02-12T07:28:03.492Z,26.80
2019-02-12T07:31:22.123Z,27.45
2019-02-12T07:34:34.954Z,26.95
2019-02-12T07:37:39.315Z,27.98
2019-02-12T07:40:52.608Z,27.30
2019-02-12T07:44:10.176Z,28.38
2019-02-12T07:47:10.318Z,27.65
2019-02-12T07:50:41.623Z,27.17
2019-02-12T07:53:31.488Z,27.98
2019-02-12T07:57:00.205Z,28.30
2019-02-12T08:00:07.232Z,28.07
2019-02-12T08:03:15.573Z,26.75
2019-02-12T08:06:21.862Z,27.13
2019-02-12T08:09:44.803Z,28.02
2019-02-12T08:12:39.930Z,26.97
2019-02-12T08:15:39.256Z,28.17
2019-02-12T08:18:37.919Z,27.55
2019-02-12T08:21:38.880Z,28.17
2019-02-12T08:24:59.908Z,26.12
2019-02-12T08:28:31.674Z,27.98
2019-02-12T08:31:25.115Z,27.48
2019-02-12T08:34:36.285Z,27.82
2019-02-12T08:37:44.131Z,28.75
2019-02-12T08:40:57.832Z,28.32
2019-02-12T08:44:08.746Z,28.95
2019-02-12T08:47:30.358Z,29.07
2019-02-12T08:50:36.227Z,30.02
2019-02-12T08:53:57.223Z,28.50
2019-02-12T08:57:11.266Z,28.83
2019-02-12T09:00:14.113Z,29.27
2019-02-12T09:03:38.515Z,29.18
2019-02-12T09:06:47.514Z,27.93
2019-02-12T09:10:27.742Z,27.30
2019-02-12T09:13:37.804Z,28.92
2019-02-12T09:16:59.164Z,27.65
2019-02-12T09:20:06.629Z,26.42
2019-02-12T09:23:40.380Z,26.17
2019-02-12T09:26:33.272Z,27.82
2019-02-12T09:29:33.363Z,29.32
2019-02-12T09:32:46.426Z,26.90
2019-02-12T09:36:00.291Z,27.75
2019-02-12T09:39:15.494Z,27.93
2019-02-12T09:42:37.993Z,27.13
2019-02-12T09:48:33.070Z,28.73
2019-02-12T09:51:49.345Z,27.80
2019-02-12T09:55:02.821Z,28.07
2019-02-12T09:58:12.340Z,27.25
2019-02-12T10:01:39.618Z,26.12
2019-02-12T10:04:39.554Z,25.97
2019-02-12T10:07:42.360Z,28.17
2019-02-12T10:11:01.108Z,26.25
2019-02-12T10:13:51.404Z,26.07
2019-02-12T10:17:14.882Z,26.42
2019-02-12T10:20:06.512Z,26.15
2019-02-12T10:23:14.132Z,25.85
2019-02-12T10:26:03.495Z,26.33
2019-02-12T10:29:06.204Z,27.17
2019-02-12T10:31:48.930Z,25.92
2019-02-12T10:37:06.383Z,26.42
2019-02-12T10:39:47.779Z,26.37
2019-02-12T10:42:26.972Z,26.77
2019-02-12T10:45:08.541Z,25.70
2019-02-12T10:47:51.305Z,26.33
2019-02-12T10:53:08.967Z,30.43
2019-02-12T10:55:48.522Z,32.98
2019-02-12T10:58:27.807Z,27.20
2019-02-12T11:01:09.209Z,27.60
2019-02-12T11:03:48.807Z,27.80
2019-02-12T11:06:27.854Z,27.73
2019-02-12T11:09:08.409Z,27.50
2019-02-12T11:11:49.022Z,29.12
2019-02-12T11:14:28.855Z,29.90
2019-02-12T11:17:09.032Z,30.10
2019-02-12T11:19:49.347Z,28.40
2019-02-12T11:22:29.511Z,29.70
2019-02-12T11:25:10.426Z,29.25
2019-02-12T11:27:49.861Z,29.45
2019-02-12T11:30:30.049Z,28.02
2019-02-12T11:33:10.076Z,27.50
2019-02-12T11:35:50.246Z,28.70
2019-02-12T11:38:31.619Z,28.07
2019-02-12T11:41:11.894Z,30.17
2019-02-12T11:43:51.302Z,31.60
2019-02-12T11:46:33.040Z,29.07
2019-02-12T11:49:12.603Z,29.70
2019-02-12T11:51:52.732Z,31.00
2019-02-12T11:54:32.532Z,31.73
2019-02-12T11:57:12.491Z,29.10
2019-02-12T11:59:52.323Z,28.95
2019-02-12T12:02:41.792Z,29.02
2019-02-12T12:05:17.679Z,28.40
2019-02-12T12:07:58.505Z,27.40
2019-02-12T12:10:40.122Z,28.10
2019-02-12T12:13:20.523Z,29.48
2019-02-12T12:16:01.018Z,30.88
2019-02-12T12:18:41.043Z,30.97
2019-02-12T12:21:25.715Z,29.35
2019-02-12T12:24:05.422Z,29.20
2019-02-12T12:26:44.658Z,29.15
2019-02-12T12:29:24.126Z,31.27
2019-02-12T12:32:05.412Z,29.25
2019-02-12T12:34:47.663Z,30.57
2019-02-12T12:37:31.681Z,29.45
2019-02-12T12:40:11.095Z,28.55
2019-02-12T12:42:52.372Z,28.50
2019-02-12T12:45:31.735Z,29.87
2019-02-12T12:48:13.184Z,31.40
2019-02-12T12:50:52.400Z,30.82
2019-02-12T12:53:31.730Z,32.60
2019-02-12T12:56:13.137Z,33.08
2019-02-12T12:58:52.276Z,30.90
2019-02-12T13:01:32.548Z,30.48
2019-02-12T13:04:12.844Z,29.50
2019-02-12T13:06:53.131Z,29.35
2019-02-12T13:09:32.162Z,31.55
2019-02-12T13:12:11.571Z,31.75
2019-02-12T13:14:55.761Z,29.48
2019-02-12T13:17:40.003Z,30.77
2019-02-12T13:20:20.066Z,29.20
2019-02-12T13:23:33.938Z,30.12
2019-02-12T13:26:35.324Z,29.18
2019-02-12T13:30:04.519Z,28.70
2019-02-12T13:32:46.307Z,29.25
2019-02-12T13:35:26.511Z,29.55
2019-02-12T13:38:07.024Z,28.15
2019-02-12T13:40:50.008Z,28.67
2019-02-12T13:43:29.507Z,29.90
2019-02-12T13:46:09.292Z,29.92
2019-02-12T13:48:48.751Z,29.20
2019-02-12T13:51:32.313Z,33.48
2019-02-12T13:54:40.413Z,31.05
2019-02-12T13:57:42.154Z,30.35
2019-02-12T14:00:21.718Z,30.68
2019-02-12T14:03:00.986Z,32.23
2019-02-12T14:05:42.910Z,30.68
2019-02-12T14:08:40.199Z,29.55
2019-02-12T14:11:52.794Z,27.52
2019-02-12T14:14:48.731Z,27.90
2019-02-12T14:17:28.471Z,25.92
2019-02-12T14:20:29.763Z,26.48
2019-02-12T14:23:09.811Z,25.52
2019-02-12T14:25:50.522Z,25.55
2019-02-12T14:28:34.947Z,25.27
2019-02-12T14:31:16.406Z,26.30
2019-02-12T14:33:59.088Z,26.05
2019-02-12T14:36:41.972Z,24.65
2019-02-12T14:39:21.172Z,26.23
2019-02-12T14:42:00.670Z,24.55
2019-02-12T14:44:41.763Z,25.43
2019-02-12T14:47:32.026Z,25.10
2019-02-12T14:50:27.506Z,24.23
2019-02-12T14:53:07.658Z,20.88
2019-02-12T14:55:49.937Z,20.85
2019-02-12T14:58:32.569Z,17.98
2019-02-12T15:01:50.621Z,18.57
2019-02-12T15:05:00.541Z,19.20
2019-02-12T15:07:39.804Z,19.52
2019-02-12T15:10:19.875Z,19.25
2019-02-12T15:13:04.492Z,19.60
2019-02-12T15:15:55.008Z,19.92
2019-02-12T15:18:34.658Z,20.15
2019-02-12T15:21:21.350Z,19.87
2019-02-12T15:24:02.676Z,18.40
2019-02-12T15:26:43.790Z,16.52
2019-02-12T15:29:26.334Z,16.60
2019-02-12T15:32:06.660Z,16.57
2019-02-12T15:34:47.124Z,17.67
2019-02-12T15:37:26.921Z,17.48
2019-02-12T15:40:06.357Z,15.58
2019-02-12T15:42:46.845Z,14.40
2019-02-12T15:45:45.527Z,13.78
2019-02-12T15:48:25.109Z,14.28
2019-02-12T15:51:15.412Z,13.30
2019-02-12T15:53:54.809Z,13.60
2019-02-12T15:56:33.958Z,13.65
2019-02-12T15:59:14.416Z,13.45
2019-02-12T16:01:54.906Z,12.47
2019-02-12T16:04:34.061Z,13.13
2019-02-12T16:07:15.664Z,13.13
2019-02-12T16:09:55.355Z,13.85
2019-02-12T16:12:35.280Z,13.20
2019-02-12T16:15:19.893Z,12.98
2019-02-12T16:18:00.299Z,13.08
2019-02-12T16:20:39.948Z,15.48
2019-02-12T16:23:21.796Z,13.80
2019-02-12T16:26:01.540Z,13.13
2019-02-12T16:28:42.042Z,12.75
2019-02-12T16:31:21.479Z,14.30
2019-02-12T16:34:00.786Z,14.18
2019-02-12T16:36:41.072Z,12.93
2019-02-12T16:39:20.517Z,12.78
2019-02-12T16:41:59.732Z,12.73
2019-02-12T16:44:40.146Z,13.62
2019-02-12T16:47:19.511Z,13.38
2019-02-12T16:49:59.663Z,13.68
2019-02-12T16:52:42.734Z,13.38
2019-02-12T16:55:22.836Z,16.12
2019-02-12T16:58:02.646Z,16.12
2019-02-12T17:00:44.071Z,14.73
2019-02-12T17:03:24.590Z,13.25
2019-02-12T17:06:05.175Z,13.60
2019-02-12T17:08:44.554Z,14.10
2019-02-12T17:11:26.792Z,13.13
2019-02-12T17:14:06.105Z,12.90
2019-02-12T17:16:45.666Z,12.55
2019-02-12T17:19:27.049Z,12.45
2019-02-12T17:22:06.390Z,12.40
2019-02-12T17:24:46.378Z,11.97
2019-02-12T17:27:26.058Z,11.40
2019-02-12T17:30:05.827Z,11.45
2019-02-12T17:32:48.657Z,11.93
2019-02-12T17:57:21.834Z,12.50
2019-02-12T18:00:01.101Z,13.25
2019-02-12T18:02:41.635Z,12.95
2019-02-12T18:05:20.977Z,13.60
2019-02-12T18:08:00.646Z,13.70
2019-02-12T18:10:40.306Z,14.18
2019-02-12T18:13:18.957Z,14.03
2019-02-12T18:15:58.983Z,12.73
2019-02-12T18:18:38.626Z,13.08
2019-02-12T18:21:18.265Z,11.68
2019-02-12T18:23:57.519Z,12.65
2019-02-12T18:26:38.004Z,11.55
2019-02-12T18:29:17.268Z,11.85
2019-02-12T18:31:56.704Z,12.30
2019-02-12T18:34:36.303Z,12.50
2019-02-12T18:37:15.850Z,16.05
2019-02-12T18:39:56.400Z,18.27
2019-02-12T18:42:35.722Z,14.53
2019-02-12T18:45:16.411Z,14.85
2019-02-12T18:47:55.950Z,14.07
2019-02-12T18:50:35.412Z,13.08
2019-02-12T18:53:14.676Z,11.95
2019-02-12T18:55:54.116Z,12.45
2019-02-12T18:58:34.662Z,12.33
2019-02-12T19:01:14.861Z,12.00
2019-02-12T19:03:54.050Z,11.28
2019-02-12T19:06:33.409Z,11.68
2019-02-12T19:09:18.147Z,11.63
2019-02-12T19:11:57.819Z,10.55
2019-02-12T19:14:37.162Z,11.28
2019-02-12T19:17:16.462Z,11.12
2019-02-12T19:19:55.883Z,11.05
2019-02-12T19:22:35.144Z,11.90
2019-02-12T19:25:17.114Z,11.78
2019-02-12T19:27:56.362Z,11.95
2019-02-12T19:30:35.472Z,12.70
2019-02-12T19:33:15.714Z,12.20
2019-02-12T19:35:54.947Z,12.00
2019-02-12T19:38:34.806Z,11.57
2019-02-12T19:41:13.509Z,11.95
2019-02-12T19:43:52.932Z,12.73
2019-02-12T19:46:32.980Z,13.22
2019-02-12T19:49:12.139Z,12.93
2019-02-12T19:51:51.578Z,13.72
2019-02-12T19:54:30.845Z,12.82
2019-02-12T19:57:10.606Z,13.25
2019-02-12T19:59:51.874Z,12.98
2019-02-12T20:02:31.396Z,14.25
2019-02-12T20:05:14.354Z,13.65
2019-02-12T20:07:53.424Z,14.53
2019-02-12T20:10:34.671Z,15.00
2019-02-12T20:13:15.571Z,15.28
2019-02-12T20:15:54.937Z,14.87
2019-02-12T20:18:33.838Z,14.30
2019-02-12T20:21:17.344Z,17.12
2019-02-12T20:24:02.843Z,18.17
2019-02-12T20:26:44.034Z,14.10
2019-02-12T20:29:23.106Z,14.85
2019-02-12T20:32:02.528Z,23.20
2019-02-12T20:34:41.851Z,25.60
2019-02-12T20:37:22.000Z,23.98
2019-02-12T20:40:02.343Z,29.02
2019-02-12T20:42:42.467Z,29.87
2019-02-12T20:45:21.971Z,30.75
2019-02-12T20:48:01.089Z,31.48
2019-02-12T20:50:40.556Z,34.00
2019-02-12T20:53:20.686Z,33.98
2019-02-12T20:55:59.997Z,34.55
2019-02-12T20:58:39.558Z,32.35
2019-02-12T21:01:18.256Z,32.17
2019-02-12T21:03:57.896Z,31.55
2019-02-12T21:06:38.413Z,33.02
2019-02-12T21:09:17.989Z,32.80
2019-02-12T21:11:58.324Z,35.80
2019-02-12T21:14:38.763Z,31.82
2019-02-12T21:17:18.546Z,29.30
2019-02-12T21:19:57.886Z,27.40
2019-02-12T21:22:37.507Z,29.02
2019-02-12T21:25:16.471Z,30.43
2019-02-12T21:27:55.358Z,31.37
2019-02-12T21:30:34.472Z,32.80
2019-02-12T21:33:13.708Z,36.03
2019-02-12T21:35:52.935Z,37.05
2019-02-12T21:38:31.919Z,37.33
2019-02-12T21:41:11.489Z,34.03
2019-02-12T21:43:50.679Z,32.65
2019-02-12T21:46:29.990Z,34.70
2019-02-12T21:49:09.066Z,36.65
2019-02-12T21:51:48.662Z,37.30
2019-02-12T21:54:28.140Z,34.48
2019-02-12T21:57:07.428Z,39.75
2019-02-12T21:59:47.425Z,40.70
2019-02-12T22:02:26.626Z,40.50
2019-02-12T22:05:06.080Z,39.73
2019-02-12T22:07:46.765Z,39.08
2019-02-12T22:10:26.096Z,36.65
2019-02-12T22:13:08.440Z,34.40
2019-02-12T22:15:54.954Z,35.92
2019-02-12T22:18:34.302Z,36.35
2019-02-12T22:21:14.568Z,34.83
2019-02-12T22:23:55.971Z,34.45
2019-02-12T22:26:35.694Z,35.40
2019-02-12T22:29:16.091Z,35.13
2019-02-12T22:31:57.471Z,35.03
2019-02-12T22:34:36.951Z,33.47
2019-02-12T22:37:16.819Z,34.80
2019-02-12T22:39:57.498Z,35.52
2019-02-12T22:42:40.263Z,36.37
2019-02-12T22:45:21.461Z,40.92
2019-02-12T22:48:02.645Z,37.93
2019-02-12T22:50:43.354Z,40.03
2019-02-12T22:53:22.952Z,41.98
2019-02-12T22:56:02.944Z,41.35
2019-02-12T22:58:43.274Z,39.35
2019-02-12T23:01:34.810Z,37.65
2019-02-12T23:04:16.430Z,40.70
2019-02-12T23:06:55.982Z,44.57
2019-02-12T23:09:36.958Z,40.90
2019-02-12T23:12:33.091Z,39.80
2019-02-12T23:15:13.947Z,40.95
2019-02-12T23:17:54.434Z,43.48
2019-02-12T23:20:34.742Z,41.23
2019-02-12T23:23:14.550Z,37.33
2019-02-12T23:25:54.422Z,37.45
2019-02-12T23:28:34.430Z,33.92
2019-02-12T23:31:15.383Z,34.95
2019-02-12T23:33:55.202Z,34.70
2019-02-12T23:36:36.124Z,32.15
2019-02-12T23:39:16.520Z,35.80
2019-02-12T23:41:58.366Z,36.10
2019-02-12T23:44:39.063Z,32.70
2019-02-12T23:47:19.463Z,34.05
2019-02-12T23:50:00.667Z,33.13
2019-02-12T23:52:41.086Z,38.42
2019-02-12T23:55:20.689Z,38.63
2019-02-12T23:58:05.975Z,46.45
